Main page
METAR-TAF:

METAR-TAF

Airports :

Taiyuan Wusu International Airport

Taiyuan, China

latitude: 37-47N, longitude: 112-33E, elevation: 779 m

Current weather observation

The report was made 12 minutes ago, at 18:00 UTC
Wind 2 kt from the East
Temperature 14°C
Humidity 82%
Pressure 1020 hPa
Visibility: 5000 m
mist

METAR: ZBYN 271800Z 10001MPS 5000 BR NSC 14/11 Q1020 NOSIG

Time: 02:12 (18:12 UTC)

Forecast

The report was made 3 hours and 11 minutes ago, at 15:01 UTC
Forecast valid from 27 at 18 UTC to 28 at 18 UTC
Wind 6 kt from the South/Southwest
Visibility: 3000 m
haze

TAF: ZBYN 271501Z 2718/2818 21003MPS 3000 HZ NSC TX26/2807Z TN09/2721Z

Weather observations and forecasts of more than 4000 airports (METAR and TAF reports).

The available stations are represented by yellow and red dots on the map.

Hover mouse over dot to see the name of the station.

Then click to see weather observations and forecasts.

To change the map : click on the green buttons with a black cross to zoom in, on the green button with a dash to zoom out, or on the green arrows for adjacent maps.


METAR-TAF: